createdAt,value
2022-10-18T00:00:43.609Z,37.10
2022-10-18T00:01:43.603Z,38.20
2022-10-18T00:02:44.591Z,32.70
2022-10-18T00:04:43.580Z,36.40
2022-10-18T00:05:43.555Z,37.80
2022-10-18T00:06:43.711Z,37.80
2022-10-18T00:07:43.539Z,38.10
2022-10-18T00:08:43.524Z,35.90
2022-10-18T00:09:43.527Z,37.00
2022-10-18T00:10:43.504Z,34.70
2022-10-18T00:11:43.493Z,33.90
2022-10-18T00:12:43.564Z,24.70
2022-10-18T00:13:43.478Z,29.50
2022-10-18T00:14:43.473Z,31.20
2022-10-18T00:15:43.458Z,35.00
2022-10-18T00:16:43.445Z,37.20
2022-10-18T00:17:43.434Z,30.30
2022-10-18T00:18:43.440Z,27.70
2022-10-18T00:19:43.415Z,32.30
2022-10-18T00:20:43.406Z,27.20
2022-10-18T00:22:43.385Z,27.80
2022-10-18T00:23:43.387Z,28.80
2022-10-18T00:24:43.365Z,20.30
2022-10-18T00:25:43.354Z,30.40
2022-10-18T00:26:43.346Z,36.20
2022-10-18T00:27:43.332Z,28.80
2022-10-18T00:28:43.386Z,28.10
2022-10-18T00:29:43.316Z,29.00
2022-10-18T00:30:43.340Z,27.90
2022-10-18T00:31:43.298Z,28.40
2022-10-18T00:32:43.289Z,31.60
2022-10-18T00:33:43.292Z,30.40
2022-10-18T00:34:43.270Z,33.60
2022-10-18T00:35:43.262Z,30.00
2022-10-18T00:36:43.247Z,31.20
2022-10-18T00:37:43.263Z,32.50
2022-10-18T00:38:43.238Z,30.70
2022-10-18T00:39:43.256Z,33.20
2022-10-18T00:40:43.209Z,31.80
2022-10-18T00:41:43.200Z,30.90
2022-10-18T00:42:43.187Z,35.10
2022-10-18T00:43:43.189Z,34.60
2022-10-18T00:44:43.171Z,33.30
2022-10-18T00:45:43.161Z,35.10
2022-10-18T00:46:43.155Z,30.50
2022-10-18T00:47:43.141Z,35.70
2022-10-18T00:48:43.161Z,37.40
2022-10-18T00:49:43.114Z,36.20
2022-10-18T00:50:43.107Z,28.10
2022-10-18T00:51:43.097Z,34.90
2022-10-18T00:52:43.089Z,39.90
2022-10-18T00:53:43.089Z,38.70
2022-10-18T00:54:43.066Z,29.10
2022-10-18T00:55:43.056Z,23.90
2022-10-18T00:56:43.046Z,25.40
2022-10-18T00:57:43.119Z,24.70
2022-10-18T00:58:43.039Z,24.40
2022-10-18T00:59:43.021Z,30.10
2022-10-18T01:00:43.009Z,17.70
2022-10-18T01:01:43.287Z,23.70
2022-10-18T01:02:42.989Z,30.40
2022-10-18T01:03:42.984Z,18.70
2022-10-18T01:04:53.152Z,20.70
2022-10-18T01:05:42.959Z,17.80
2022-10-18T01:06:43.031Z,28.40
2022-10-18T01:07:42.946Z,19.00
2022-10-18T01:08:42.939Z,16.00
2022-10-18T01:09:42.914Z,16.80
2022-10-18T01:10:42.909Z,17.40
2022-10-18T01:11:42.897Z,21.80
2022-10-18T01:12:42.890Z,17.20
2022-10-18T01:13:42.889Z,22.30
2022-10-18T01:14:42.867Z,25.30
2022-10-18T01:15:42.856Z,21.20
2022-10-18T01:16:42.850Z,16.10
2022-10-18T01:17:42.845Z,14.70
2022-10-18T01:18:42.841Z,9.90
2022-10-18T01:19:42.823Z,18.90
2022-10-18T01:20:42.812Z,15.00
2022-10-18T01:21:42.803Z,13.20
2022-10-18T01:22:42.797Z,13.60
2022-10-18T01:23:42.797Z,12.70
2022-10-18T01:24:42.771Z,11.80
2022-10-18T01:25:42.755Z,13.70
2022-10-18T01:26:43.751Z,12.00
2022-10-18T01:27:42.739Z,12.10
2022-10-18T01:28:42.796Z,22.00
2022-10-18T01:29:42.725Z,17.10
2022-10-18T01:30:42.717Z,13.30
2022-10-18T01:31:42.704Z,8.10
2022-10-18T01:32:42.747Z,9.00
2022-10-18T01:33:42.705Z,16.40
2022-10-18T01:34:42.678Z,13.20
2022-10-18T01:35:42.666Z,13.90
2022-10-18T01:36:42.656Z,16.70
2022-10-18T01:37:42.639Z,12.50
2022-10-18T01:38:42.644Z,14.70
2022-10-18T01:39:42.624Z,12.40
2022-10-18T01:40:42.611Z,13.70
2022-10-18T01:41:42.603Z,29.00
2022-10-18T01:42:42.594Z,19.60
2022-10-18T01:43:42.597Z,21.10
2022-10-18T01:44:42.575Z,17.50
2022-10-18T01:45:42.562Z,22.90
2022-10-18T01:46:42.555Z,21.70
2022-10-18T01:47:42.543Z,22.60
2022-10-18T01:48:42.545Z,27.10
2022-10-18T01:49:42.522Z,35.40
2022-10-18T01:50:42.513Z,31.50
2022-10-18T01:51:42.507Z,33.00
2022-10-18T01:52:42.495Z,32.30
2022-10-18T01:53:42.493Z,33.00
2022-10-18T01:54:42.515Z,25.60
2022-10-18T01:55:42.466Z,36.20
2022-10-18T01:56:42.455Z,45.90
2022-10-18T01:57:42.444Z,40.80
2022-10-18T01:58:42.445Z,36.90
2022-10-18T01:59:42.426Z,33.10
2022-10-18T02:00:42.413Z,37.50
2022-10-18T02:01:42.419Z,37.10
2022-10-18T02:02:42.398Z,39.00
2022-10-18T02:03:42.392Z,31.40
2022-10-18T02:04:42.373Z,33.80
2022-10-18T02:05:42.454Z,28.80
2022-10-18T02:06:42.352Z,36.30
2022-10-18T02:07:42.341Z,33.50
2022-10-18T02:08:42.411Z,25.70
2022-10-18T02:09:43.320Z,25.00
2022-10-18T02:10:42.315Z,12.90
2022-10-18T02:11:42.302Z,13.60
2022-10-18T02:12:42.297Z,17.00
2022-10-18T02:13:42.367Z,15.50
2022-10-18T02:14:42.273Z,9.90
2022-10-18T02:15:42.262Z,14.80
2022-10-18T02:16:42.253Z,15.10
2022-10-18T02:17:42.248Z,16.40
2022-10-18T02:18:42.261Z,18.00
2022-10-18T02:19:42.225Z,17.20
2022-10-18T02:20:42.217Z,17.30
2022-10-18T02:21:42.207Z,14.30
2022-10-18T02:22:42.197Z,18.70
2022-10-18T02:23:42.199Z,25.30
2022-10-18T02:24:42.175Z,23.90
2022-10-18T02:25:42.165Z,31.90
2022-10-18T02:26:42.156Z,22.60
2022-10-18T02:27:42.149Z,25.40
2022-10-18T02:28:42.144Z,21.50
2022-10-18T02:29:42.125Z,22.20
2022-10-18T02:30:42.115Z,20.20
2022-10-18T02:31:42.119Z,22.40
2022-10-18T02:32:42.095Z,18.40
2022-10-18T02:33:42.098Z,19.50
2022-10-18T02:34:42.078Z,24.30
2022-10-18T02:35:42.094Z,21.60
2022-10-18T02:36:42.059Z,17.20
2022-10-18T02:37:42.050Z,19.50
2022-10-18T02:38:42.046Z,20.70
2022-10-18T02:39:42.024Z,16.60
2022-10-18T02:40:42.019Z,18.80
2022-10-18T02:41:42.008Z,16.00
2022-10-18T02:42:42.001Z,14.90
2022-10-18T02:43:41.998Z,12.10
2022-10-18T02:44:41.977Z,19.50
2022-10-18T02:45:41.971Z,17.60
2022-10-18T02:46:41.959Z,17.00
2022-10-18T02:47:41.950Z,13.60
2022-10-18T02:48:41.953Z,14.90
2022-10-18T02:49:41.930Z,16.60
2022-10-18T02:50:41.921Z,14.70
2022-10-18T02:51:41.908Z,16.50
2022-10-18T02:52:41.899Z,27.70
2022-10-18T02:53:41.903Z,18.90
2022-10-18T02:54:41.882Z,23.00
2022-10-18T02:55:41.882Z,21.50
2022-10-18T02:56:41.891Z,22.80
2022-10-18T02:57:41.852Z,24.90
2022-10-18T02:58:41.854Z,19.30
2022-10-18T02:59:41.828Z,24.20
2022-10-18T03:00:41.850Z,23.20
2022-10-18T03:01:41.839Z,23.40
2022-10-18T03:02:41.802Z,19.90
2022-10-18T03:03:41.807Z,23.60
2022-10-18T03:04:41.785Z,23.90
2022-10-18T03:05:41.772Z,15.20
2022-10-18T03:06:41.759Z,14.30
2022-10-18T03:07:41.749Z,14.70
2022-10-18T03:08:41.748Z,15.40
2022-10-18T03:09:42.036Z,16.30
2022-10-18T03:10:41.721Z,15.40
2022-10-18T03:11:41.712Z,15.30
2022-10-18T03:12:41.700Z,12.00
2022-10-18T03:13:41.707Z,16.00
2022-10-18T03:14:41.673Z,12.60
2022-10-18T03:15:42.672Z,13.60
2022-10-18T03:16:41.661Z,16.80
2022-10-18T03:17:41.653Z,15.40
2022-10-18T03:18:41.655Z,13.40
2022-10-18T03:19:41.635Z,16.30
2022-10-18T03:20:41.666Z,11.40
2022-10-18T03:21:41.612Z,11.50
2022-10-18T03:22:41.602Z,17.00
2022-10-18T03:23:41.603Z,15.30
2022-10-18T03:24:41.582Z,16.60
2022-10-18T03:25:44.215Z,12.90
2022-10-18T03:26:41.560Z,12.30
2022-10-18T03:27:41.553Z,14.30
2022-10-18T03:28:41.576Z,14.80
2022-10-18T03:29:41.528Z,13.60
2022-10-18T03:30:41.517Z,15.90
2022-10-18T03:31:41.511Z,15.40
2022-10-18T03:32:41.502Z,13.80
2022-10-18T03:33:41.606Z,12.40
2022-10-18T03:34:41.484Z,14.50
2022-10-18T03:35:41.475Z,16.40
2022-10-18T03:36:41.462Z,15.30
2022-10-18T03:37:41.449Z,12.70
2022-10-18T03:38:41.451Z,13.30
2022-10-18T03:39:41.429Z,11.90
2022-10-18T03:40:41.420Z,11.60
2022-10-18T03:41:41.414Z,14.40
2022-10-18T03:42:41.414Z,14.00
2022-10-18T03:43:41.405Z,12.70
2022-10-18T03:44:41.382Z,19.10
2022-10-18T03:45:41.372Z,14.00
2022-10-18T03:46:41.364Z,17.10
2022-10-18T03:47:41.355Z,15.50
2022-10-18T03:48:41.353Z,16.60
2022-10-18T03:49:41.339Z,18.00
2022-10-18T03:50:41.320Z,15.10
2022-10-18T03:51:41.309Z,18.00
2022-10-18T03:52:41.302Z,16.80
2022-10-18T03:53:41.300Z,18.70
2022-10-18T03:54:41.283Z,17.10
2022-10-18T03:55:41.270Z,20.90
2022-10-18T03:56:41.258Z,26.10
2022-10-18T03:57:41.253Z,25.70
2022-10-18T03:58:41.255Z,23.90
2022-10-18T03:59:41.273Z,27.30
2022-10-18T04:00:41.222Z,17.80
2022-10-18T04:01:41.250Z,18.30
2022-10-18T04:02:41.206Z,17.30
2022-10-18T04:03:41.207Z,19.90
2022-10-18T04:04:41.204Z,15.60
2022-10-18T04:05:41.178Z,21.50
2022-10-18T04:06:41.162Z,19.80
2022-10-18T04:07:41.170Z,21.80
2022-10-18T04:08:41.166Z,17.90
2022-10-18T04:09:41.132Z,19.60
2022-10-18T04:10:41.126Z,16.10
2022-10-18T04:11:41.114Z,19.50
2022-10-18T04:12:41.105Z,26.10
2022-10-18T04:13:41.112Z,19.80
2022-10-18T04:14:41.090Z,21.30
2022-10-18T04:15:41.078Z,35.30
2022-10-18T04:16:41.069Z,39.10
2022-10-18T04:17:41.058Z,42.60
2022-10-18T04:18:41.057Z,54.20
2022-10-18T04:19:41.035Z,43.50
2022-10-18T04:20:41.034Z,27.90
2022-10-18T04:21:41.016Z,31.30
2022-10-18T04:22:41.009Z,30.70
2022-10-18T04:23:41.013Z,25.10
2022-10-18T04:24:40.989Z,25.70
2022-10-18T04:25:41.013Z,33.10
2022-10-18T04:26:40.972Z,34.50
2022-10-18T04:27:40.965Z,37.10
2022-10-18T04:28:41.011Z,43.30
2022-10-18T04:29:40.943Z,35.10
2022-10-18T04:30:40.935Z,31.60
2022-10-18T04:31:40.948Z,43.60
2022-10-18T04:32:40.909Z,39.90
2022-10-18T04:33:40.911Z,29.00
2022-10-18T04:34:40.892Z,27.90
2022-10-18T04:35:40.889Z,32.60
2022-10-18T04:36:40.870Z,29.50
2022-10-18T04:37:40.862Z,25.70
2022-10-18T04:38:40.863Z,50.50
2022-10-18T04:39:40.843Z,73.30
2022-10-18T04:40:40.828Z,40.00
2022-10-18T04:41:40.822Z,33.70
2022-10-18T04:42:40.810Z,35.70
2022-10-18T04:43:40.835Z,25.30
2022-10-18T04:44:40.787Z,28.50
2022-10-18T04:45:40.777Z,28.10
2022-10-18T04:46:40.765Z,27.10
2022-10-18T04:47:40.759Z,27.10
2022-10-18T04:48:40.763Z,23.50
2022-10-18T04:49:40.734Z,24.10
2022-10-18T04:50:40.727Z,23.10
2022-10-18T04:51:40.717Z,28.40
2022-10-18T04:52:40.735Z,28.20
2022-10-18T04:53:40.705Z,24.20
2022-10-18T04:54:40.683Z,26.10
2022-10-18T04:55:40.678Z,22.70
2022-10-18T04:56:40.664Z,21.60
2022-10-18T04:57:40.657Z,25.60
2022-10-18T04:58:40.653Z,36.20
2022-10-18T04:59:40.636Z,35.50
2022-10-18T05:00:40.622Z,28.10
2022-10-18T05:01:40.691Z,32.00
2022-10-18T05:02:40.599Z,51.90
2022-10-18T05:03:40.602Z,46.30
2022-10-18T05:04:40.582Z,59.50
2022-10-18T05:06:00.140Z,120.60
2022-10-18T05:06:42.565Z,203.80
2022-10-18T05:07:40.555Z,208.90
2022-10-18T05:08:40.553Z,195.90
2022-10-18T05:09:40.536Z,36.60
2022-10-18T05:10:40.520Z,30.30
2022-10-18T05:11:40.511Z,35.40
2022-10-18T05:12:40.502Z,29.70
2022-10-18T05:13:40.504Z,40.30
2022-10-18T05:14:40.482Z,31.80
2022-10-18T05:15:40.473Z,31.30
2022-10-18T05:16:40.482Z,29.00
2022-10-18T05:17:40.444Z,30.20
2022-10-18T05:18:40.452Z,35.10
2022-10-18T05:19:40.430Z,26.10
2022-10-18T05:20:40.445Z,44.80
2022-10-18T05:21:40.412Z,39.20
2022-10-18T05:22:40.396Z,29.60
2022-10-18T05:23:40.405Z,32.60
2022-10-18T05:24:40.388Z,41.40
2022-10-18T05:25:40.384Z,36.30
2022-10-18T05:26:40.366Z,35.90
2022-10-18T05:27:40.354Z,36.00
2022-10-18T05:28:41.256Z,43.10
2022-10-18T05:29:41.336Z,34.90
2022-10-18T05:30:40.326Z,36.20
2022-10-18T05:31:40.313Z,41.40
2022-10-18T05:32:40.305Z,64.30
2022-10-18T05:33:40.302Z,36.90
2022-10-18T05:34:40.289Z,41.40
2022-10-18T05:35:40.278Z,33.30
2022-10-18T05:36:40.267Z,37.00
2022-10-18T05:37:40.255Z,39.20
2022-10-18T05:38:40.280Z,63.00
2022-10-18T05:39:40.240Z,38.30
2022-10-18T05:40:40.225Z,33.90
2022-10-18T05:41:40.215Z,30.20
2022-10-18T05:42:40.253Z,37.60
2022-10-18T05:43:40.195Z,38.10
2022-10-18T05:44:40.196Z,50.70
2022-10-18T05:45:40.184Z,41.30
2022-10-18T05:46:40.161Z,34.30
2022-10-18T05:47:40.153Z,40.60
2022-10-18T05:48:40.134Z,42.90
2022-10-18T05:49:40.143Z,39.40
2022-10-18T05:50:40.475Z,56.30
2022-10-18T05:51:40.114Z,46.90
2022-10-18T05:52:40.104Z,46.90
2022-10-18T05:53:40.089Z,63.70
2022-10-18T05:54:40.088Z,67.30
2022-10-18T05:55:40.069Z,65.90
2022-10-18T05:56:40.135Z,51.90
2022-10-18T05:57:40.046Z,43.20
2022-10-18T05:58:40.038Z,40.10
2022-10-18T05:59:40.036Z,45.10
2022-10-18T06:00:40.021Z,49.60
2022-10-18T06:01:40.011Z,44.60
2022-10-18T06:02:40.029Z,38.70
2022-10-18T06:03:39.986Z,37.70
2022-10-18T06:04:39.997Z,45.40
2022-10-18T06:06:40.061Z,35.80
2022-10-18T06:07:39.943Z,38.00
2022-10-18T06:08:39.933Z,48.20
2022-10-18T06:09:39.936Z,41.00
2022-10-18T06:10:39.965Z,49.80
2022-10-18T06:11:39.908Z,35.30
2022-10-18T06:12:39.897Z,42.40
2022-10-18T06:13:39.890Z,43.10
2022-10-18T06:14:39.885Z,39.70
2022-10-18T06:15:39.868Z,29.00
2022-10-18T06:16:39.893Z,31.50
2022-10-18T06:17:39.851Z,33.40
2022-10-18T06:18:39.838Z,38.00
2022-10-18T06:19:39.834Z,35.70
2022-10-18T06:20:39.820Z,41.10
2022-10-18T06:21:39.801Z,33.20
2022-10-18T06:22:39.791Z,37.00
2022-10-18T06:23:39.786Z,51.10
2022-10-18T06:24:39.783Z,40.80
2022-10-18T06:25:39.763Z,36.70
2022-10-18T06:26:39.753Z,57.70
2022-10-18T06:27:39.744Z,58.60
2022-10-18T06:28:39.762Z,95.40
2022-10-18T06:29:39.742Z,279.00
2022-10-18T06:30:39.711Z,117.40
2022-10-18T06:31:39.707Z,103.10
2022-10-18T06:32:39.690Z,127.60
2022-10-18T06:33:39.686Z,80.10
2022-10-18T06:34:39.680Z,50.60
2022-10-18T06:35:39.663Z,58.60
2022-10-18T06:36:39.681Z,62.20
2022-10-18T06:37:39.705Z,62.90
2022-10-18T06:38:39.666Z,62.30
2022-10-18T06:39:39.626Z,68.60
2022-10-18T06:40:39.612Z,175.80
2022-10-18T06:41:39.595Z,377.30
2022-10-18T06:42:39.595Z,193.20
2022-10-18T06:43:39.576Z,62.80
2022-10-18T06:44:39.582Z,99.70
2022-10-18T06:45:39.555Z,77.20
2022-10-18T06:46:39.544Z,56.00
2022-10-18T06:47:39.537Z,100.20
2022-10-18T06:48:39.532Z,64.00
2022-10-18T06:49:39.513Z,91.40
2022-10-18T06:50:39.501Z,75.00
2022-10-18T06:51:39.485Z,52.80
2022-10-18T06:52:40.485Z,41.90
2022-10-18T06:53:44.183Z,46.60
2022-10-18T06:54:41.456Z,42.90
2022-10-18T06:55:39.451Z,43.80
2022-10-18T06:56:39.434Z,44.30
2022-10-18T06:57:39.431Z,42.60
2022-10-18T06:58:39.434Z,53.30
2022-10-18T06:59:39.494Z,42.70
2022-10-18T07:00:39.397Z,44.10
2022-10-18T07:01:39.419Z,40.90
2022-10-18T07:02:39.375Z,49.00
2022-10-18T07:03:39.376Z,44.00
2022-10-18T07:04:39.375Z,42.20
2022-10-18T07:06:05.258Z,48.40
2022-10-18T07:06:39.330Z,41.70
2022-10-18T07:07:39.322Z,114.80
2022-10-18T07:08:39.329Z,55.60
2022-10-18T07:09:39.307Z,35.70
2022-10-18T07:10:39.294Z,46.50
2022-10-18T07:11:39.288Z,43.20
2022-10-18T07:12:39.279Z,34.30
2022-10-18T07:13:39.274Z,39.00
2022-10-18T07:14:39.252Z,36.40
2022-10-18T07:15:39.254Z,39.40
2022-10-18T07:16:39.240Z,34.30
2022-10-18T07:17:39.222Z,57.10
2022-10-18T07:18:39.223Z,38.20
2022-10-18T07:19:39.206Z,38.30
2022-10-18T07:20:39.187Z,33.60
2022-10-18T07:21:39.184Z,38.30
2022-10-18T07:22:39.183Z,38.60
2022-10-18T07:23:39.173Z,39.50
2022-10-18T07:24:39.152Z,43.30
2022-10-18T07:25:39.137Z,44.10
2022-10-18T07:26:39.128Z,40.40
2022-10-18T07:27:39.116Z,46.20
2022-10-18T07:28:39.152Z,39.50
2022-10-18T07:29:39.098Z,43.10
2022-10-18T07:30:39.083Z,41.80
2022-10-18T07:31:39.100Z,41.50
2022-10-18T07:32:39.072Z,44.70
2022-10-18T07:33:39.068Z,53.60
2022-10-18T07:34:39.044Z,41.60
2022-10-18T07:35:39.037Z,42.20
2022-10-18T07:36:39.023Z,41.90
2022-10-18T07:37:39.014Z,39.30
2022-10-18T07:38:39.001Z,43.10
2022-10-18T07:39:39.002Z,55.40
2022-10-18T07:40:38.984Z,58.00
2022-10-18T07:41:38.972Z,44.10
2022-10-18T07:42:39.026Z,43.40
2022-10-18T07:43:38.977Z,46.40
2022-10-18T07:44:38.956Z,39.20
2022-10-18T07:45:38.938Z,38.20
2022-10-18T07:46:38.923Z,41.90
2022-10-18T07:47:39.279Z,35.50
2022-10-18T07:48:38.899Z,38.30
2022-10-18T07:49:38.904Z,38.40
2022-10-18T07:50:38.882Z,39.00
2022-10-18T07:51:38.870Z,34.90
2022-10-18T07:52:38.861Z,50.70
2022-10-18T07:53:38.854Z,43.30
2022-10-18T07:54:38.914Z,43.40
2022-10-18T07:55:38.832Z,38.30
2022-10-18T07:56:38.822Z,37.60
2022-10-18T07:57:38.810Z,43.10
2022-10-18T07:58:38.801Z,38.60
2022-10-18T07:59:38.807Z,60.60
2022-10-18T08:00:38.793Z,52.30
2022-10-18T08:01:38.801Z,49.90
2022-10-18T08:02:38.768Z,59.20
2022-10-18T08:03:38.754Z,77.70
2022-10-18T08:04:38.752Z,100.00
2022-10-18T08:05:38.734Z,104.70
2022-10-18T08:06:38.722Z,141.70
2022-10-18T08:07:38.715Z,106.30
2022-10-18T08:08:38.704Z,111.90
2022-10-18T08:09:38.710Z,91.60
2022-10-18T08:10:38.702Z,71.20
2022-10-18T08:11:38.670Z,58.30
2022-10-18T08:12:38.665Z,45.80
2022-10-18T08:13:38.652Z,45.90
2022-10-18T08:14:38.650Z,40.60
2022-10-18T08:15:38.631Z,38.80
2022-10-18T08:16:38.626Z,43.10
2022-10-18T08:17:38.612Z,63.30
2022-10-18T08:18:38.599Z,68.70
2022-10-18T08:19:44.616Z,40.50
2022-10-18T08:20:39.575Z,56.60
2022-10-18T08:21:38.568Z,47.30
2022-10-18T08:22:38.558Z,38.60
2022-10-18T08:23:38.547Z,39.70
2022-10-18T08:24:38.548Z,39.40
2022-10-18T08:25:38.537Z,39.70
2022-10-18T08:26:38.523Z,42.30
2022-10-18T08:27:38.503Z,48.30
2022-10-18T08:28:38.528Z,56.30
2022-10-18T08:29:38.534Z,46.10
2022-10-18T08:30:38.490Z,86.80
2022-10-18T08:31:38.464Z,39.10
2022-10-18T08:32:38.453Z,39.80
2022-10-18T08:33:38.446Z,42.50
2022-10-18T08:35:39.422Z,61.50
2022-10-18T08:36:38.412Z,42.60
2022-10-18T08:37:38.399Z,51.30
2022-10-18T08:38:38.388Z,42.00
2022-10-18T08:39:38.396Z,44.20
2022-10-18T08:40:38.373Z,47.50
2022-10-18T08:41:38.386Z,48.50
2022-10-18T08:42:38.351Z,44.80
2022-10-18T08:43:38.364Z,36.00
2022-10-18T08:44:38.335Z,36.50
2022-10-18T08:45:42.522Z,66.70
2022-10-18T08:46:39.308Z,42.50
2022-10-18T08:47:38.303Z,41.70
2022-10-18T08:48:38.301Z,36.90
2022-10-18T08:49:38.389Z,44.30
2022-10-18T08:50:38.269Z,42.50
2022-10-18T08:51:38.262Z,40.00
2022-10-18T08:52:38.246Z,48.90
2022-10-18T08:53:39.962Z,57.70
2022-10-18T08:54:38.229Z,42.30
2022-10-18T08:55:38.219Z,44.60
2022-10-18T08:56:38.211Z,49.80
2022-10-18T08:57:38.199Z,40.20
2022-10-18T08:58:38.199Z,50.70
2022-10-18T08:59:38.180Z,37.80
2022-10-18T09:00:38.172Z,44.30
2022-10-18T09:01:38.238Z,48.20
2022-10-18T09:02:38.157Z,39.10
2022-10-18T09:03:38.235Z,44.90
2022-10-18T09:04:38.130Z,35.00
2022-10-18T09:05:38.119Z,38.10
2022-10-18T09:06:38.111Z,42.70
2022-10-18T09:07:38.097Z,42.10
2022-10-18T09:08:38.098Z,41.60
2022-10-18T09:09:38.086Z,36.60
2022-10-18T09:10:38.068Z,41.20
2022-10-18T09:11:38.068Z,45.30
2022-10-18T09:12:38.050Z,49.60
2022-10-18T09:13:38.061Z,44.80
2022-10-18T09:14:38.028Z,36.90
2022-10-18T09:15:38.018Z,40.20
2022-10-18T09:16:38.009Z,41.00
2022-10-18T09:17:38.000Z,40.80
2022-10-18T09:18:38.003Z,34.50
2022-10-18T09:19:37.978Z,35.20
2022-10-18T09:20:37.968Z,37.40
2022-10-18T09:21:37.960Z,42.00
2022-10-18T09:22:37.946Z,37.90
2022-10-18T09:23:37.944Z,38.00
2022-10-18T09:24:37.970Z,47.70
2022-10-18T09:25:37.917Z,40.60
2022-10-18T09:26:37.907Z,47.50
2022-10-18T09:27:37.894Z,44.70
2022-10-18T09:28:37.969Z,41.50
2022-10-18T09:29:37.896Z,35.80
2022-10-18T09:30:37.869Z,40.50
2022-10-18T09:31:37.857Z,34.90
2022-10-18T09:32:37.845Z,38.10
2022-10-18T09:33:37.836Z,34.80
2022-10-18T09:34:37.834Z,32.50
2022-10-18T09:35:37.817Z,35.50
2022-10-18T09:36:37.808Z,36.00
2022-10-18T09:37:37.794Z,32.70
2022-10-18T09:38:37.782Z,35.80
2022-10-18T09:39:37.787Z,36.00
2022-10-18T09:40:37.760Z,35.30
2022-10-18T09:41:37.752Z,33.70
2022-10-18T09:42:37.741Z,33.10
2022-10-18T09:43:37.732Z,31.90
2022-10-18T09:44:37.735Z,27.80
2022-10-18T09:45:37.714Z,32.10
2022-10-18T09:46:37.707Z,39.40
2022-10-18T09:47:37.708Z,48.40
2022-10-18T09:48:37.686Z,38.10
2022-10-18T09:49:37.693Z,25.10
2022-10-18T09:50:37.675Z,28.10
2022-10-18T09:51:37.659Z,27.60
2022-10-18T09:52:37.643Z,25.70
2022-10-18T09:53:37.635Z,29.10
2022-10-18T09:54:37.637Z,32.70
2022-10-18T09:55:37.615Z,32.50
2022-10-18T09:56:40.854Z,30.70
2022-10-18T09:57:37.591Z,26.50
2022-10-18T09:58:37.617Z,31.10
2022-10-18T09:59:37.581Z,27.30
2022-10-18T10:00:37.563Z,22.70
2022-10-18T10:01:37.556Z,18.00
2022-10-18T10:02:37.585Z,18.80
2022-10-18T10:03:37.535Z,18.30
2022-10-18T10:04:37.536Z,20.00
2022-10-18T10:05:37.515Z,19.20
2022-10-18T10:06:37.504Z,18.10
2022-10-18T10:07:37.899Z,23.20
2022-10-18T10:08:37.485Z,20.80
2022-10-18T10:09:37.484Z,20.10
2022-10-18T10:10:38.463Z,17.60
2022-10-18T10:11:37.454Z,18.90
2022-10-18T10:12:37.452Z,15.00
2022-10-18T10:13:37.463Z,14.60
2022-10-18T10:14:37.428Z,18.60
2022-10-18T10:15:39.413Z,17.90
2022-10-18T10:16:37.407Z,16.40
2022-10-18T10:17:37.397Z,14.70
2022-10-18T10:18:37.394Z,18.60
2022-10-18T10:19:37.376Z,21.00
2022-10-18T10:20:37.364Z,27.90
2022-10-18T10:21:37.349Z,22.20
2022-10-18T10:22:37.364Z,22.40
2022-10-18T10:23:37.348Z,24.80
2022-10-18T10:24:37.325Z,17.40
2022-10-18T10:25:37.315Z,16.50
2022-10-18T10:26:37.306Z,20.20
2022-10-18T10:27:37.294Z,18.10
2022-10-18T10:28:37.431Z,18.60
2022-10-18T10:29:44.361Z,19.90
2022-10-18T10:30:39.269Z,19.90
2022-10-18T10:31:37.262Z,16.40
2022-10-18T10:32:37.276Z,15.80
2022-10-18T10:33:37.260Z,16.70
2022-10-18T10:34:39.830Z,19.60
2022-10-18T10:35:54.267Z,15.70
2022-10-18T10:36:39.207Z,19.70
2022-10-18T10:37:37.212Z,17.60
2022-10-18T10:38:37.200Z,17.40
2022-10-18T10:39:37.178Z,18.30
2022-10-18T10:40:37.169Z,17.90
2022-10-18T10:41:37.155Z,16.70
2022-10-18T10:42:37.150Z,17.60
2022-10-18T10:43:38.880Z,16.90
2022-10-18T10:44:38.128Z,15.00
2022-10-18T10:45:37.114Z,16.50
2022-10-18T10:46:37.107Z,16.40
2022-10-18T10:47:37.100Z,16.50
2022-10-18T10:48:37.102Z,18.40
2022-10-18T10:49:41.327Z,14.70
2022-10-18T10:50:39.408Z,14.10
2022-10-18T10:51:37.062Z,14.20
2022-10-18T10:52:37.489Z,17.00
2022-10-18T10:53:37.064Z,14.80
2022-10-18T10:54:37.034Z,15.50
2022-10-18T10:55:37.021Z,16.40
2022-10-18T10:56:37.014Z,14.20
2022-10-18T10:57:37.000Z,16.20
2022-10-18T10:58:37.004Z,17.50
2022-10-18T10:59:37.020Z,15.10
2022-10-18T11:00:36.972Z,13.70
2022-10-18T11:01:36.960Z,15.80
2022-10-18T11:02:36.947Z,14.90
2022-10-18T11:03:36.971Z,13.90
2022-10-18T11:04:36.932Z,16.50
2022-10-18T11:05:36.924Z,16.50
2022-10-18T11:06:36.914Z,13.20
2022-10-18T11:07:36.901Z,12.00
2022-10-18T11:08:36.948Z,12.00
2022-10-18T11:09:36.890Z,11.80
2022-10-18T11:10:36.874Z,12.90
2022-10-18T11:11:36.863Z,10.80
2022-10-18T11:12:36.852Z,14.90
2022-10-18T11:13:36.875Z,12.10
2022-10-18T11:14:36.834Z,12.30
2022-10-18T11:15:36.839Z,13.30
2022-10-18T11:16:36.822Z,12.30
2022-10-18T11:17:36.804Z,12.30
2022-10-18T11:18:36.822Z,14.40
2022-10-18T11:19:36.790Z,9.10
2022-10-18T11:20:36.781Z,13.00
2022-10-18T11:21:36.771Z,12.60
2022-10-18T11:22:36.760Z,11.00
2022-10-18T11:23:36.764Z,10.80
2022-10-18T11:24:36.739Z,11.10
2022-10-18T11:25:36.732Z,10.00
2022-10-18T11:26:40.984Z,14.40
2022-10-18T11:27:38.714Z,9.80
2022-10-18T11:28:36.767Z,10.20
2022-10-18T11:29:36.694Z,11.80
2022-10-18T11:30:36.686Z,10.20
2022-10-18T11:31:36.672Z,10.30
2022-10-18T11:32:36.664Z,10.80
2022-10-18T11:34:03.517Z,10.00
2022-10-18T11:34:38.656Z,9.30
2022-10-18T11:35:36.632Z,8.80
2022-10-18T11:36:36.905Z,8.80
2022-10-18T11:37:38.593Z,12.20
2022-10-18T11:38:37.601Z,10.00
2022-10-18T11:39:36.607Z,9.40
2022-10-18T11:40:36.582Z,7.60
2022-10-18T11:41:36.569Z,7.80
2022-10-18T11:42:39.783Z,10.80
2022-10-18T11:43:57.490Z,9.90
2022-10-18T11:44:38.558Z,9.30
2022-10-18T11:45:36.537Z,9.60
2022-10-18T11:46:36.525Z,9.90
2022-10-18T11:47:36.520Z,8.70
2022-10-18T11:48:36.507Z,10.40
2022-10-18T11:49:36.505Z,13.10
2022-10-18T11:50:36.487Z,8.50
2022-10-18T11:51:50.319Z,11.60
2022-10-18T11:52:38.470Z,11.20
2022-10-18T11:53:36.460Z,13.10
2022-10-18T11:54:36.519Z,13.50
2022-10-18T11:55:36.440Z,11.40
2022-10-18T11:56:36.434Z,12.10
2022-10-18T11:57:36.418Z,12.10
2022-10-18T11:58:36.456Z,10.10
2022-10-18T11:59:36.415Z,10.20
2022-10-18T12:00:36.391Z,12.50
2022-10-18T12:01:36.385Z,12.10
2022-10-18T12:02:36.644Z,9.20
2022-10-18T12:03:36.375Z,12.70
2022-10-18T12:04:40.915Z,10.30
2022-10-18T12:05:37.378Z,10.40
2022-10-18T12:06:36.338Z,12.30
2022-10-18T12:07:36.330Z,9.50
2022-10-18T12:08:36.319Z,10.80
2022-10-18T12:09:36.386Z,11.00
2022-10-18T12:10:52.577Z,11.30
2022-10-18T12:11:38.290Z,13.00
2022-10-18T12:12:36.275Z,13.20
2022-10-18T12:13:36.273Z,9.40
2022-10-18T12:14:36.277Z,9.10
2022-10-18T12:15:36.254Z,9.00
2022-10-18T12:16:51.089Z,11.10
2022-10-18T12:17:51.230Z,11.50
2022-10-18T12:18:38.223Z,12.80
2022-10-18T12:19:36.220Z,11.00
2022-10-18T12:20:36.202Z,13.50
2022-10-18T12:21:36.192Z,9.70
2022-10-18T12:22:36.180Z,8.90
2022-10-18T12:23:36.160Z,10.70
2022-10-18T12:24:37.175Z,12.00
2022-10-18T12:25:36.149Z,10.40
2022-10-18T12:26:36.142Z,9.70
2022-10-18T12:27:36.134Z,10.70
2022-10-18T12:28:36.154Z,10.60
2022-10-18T12:29:36.122Z,10.40
2022-10-18T12:30:36.101Z,9.60
2022-10-18T12:31:36.093Z,10.10
2022-10-18T12:32:36.082Z,12.90
2022-10-18T12:33:36.118Z,9.40
2022-10-18T12:34:36.094Z,12.50
2022-10-18T12:35:36.066Z,11.00
2022-10-18T12:36:36.093Z,9.40
2022-10-18T12:37:36.250Z,11.90
2022-10-18T12:38:36.021Z,13.00
2022-10-18T12:39:43.635Z,14.60
2022-10-18T12:40:38.000Z,15.30
2022-10-18T12:41:35.991Z,10.70
2022-10-18T12:42:35.989Z,13.60
2022-10-18T12:43:35.973Z,13.50
2022-10-18T12:44:35.977Z,10.80
2022-10-18T12:45:35.956Z,10.90
2022-10-18T12:46:35.951Z,12.30
2022-10-18T12:47:36.028Z,11.30
2022-10-18T12:48:35.930Z,12.70
2022-10-18T12:49:36.737Z,10.10
2022-10-18T12:50:35.918Z,8.50
2022-10-18T12:51:35.909Z,12.80
2022-10-18T12:52:35.891Z,12.00
2022-10-18T12:53:35.878Z,12.40
2022-10-18T12:54:35.875Z,13.00
2022-10-18T12:55:35.887Z,13.90
2022-10-18T12:56:35.850Z,17.30
2022-10-18T12:57:35.843Z,12.20